Time;durP1;ratioP1;P1;durP2;ratioP2;P2;SDS_P1;SDS_P2;PMS_P1;PMS_P2;Temp;Humidity;BMP_temperature;BMP_pressure;BME280_temperature;BME280_humidity;BME280_pressure;Samples;Min_cycle;Max_cycle;Signal;HPM_P1;HPM_P2
2021/07/29 00:01:03;;;;;;;3.6;2.6;;;;;;;;;;;;;
2021/07/29 00:03:29;;;;;;;4.2;2.7;;;;;;;;;;;;;
2021/07/29 00:05:56;;;;;;;3.3;2.7;;;;;;;;;;;;;
2021/07/29 00:08:21;;;;;;;3.4;2.6;;;;;;;;;;;;;
2021/07/29 00:10:46;;;;;;;3.7;2.5;;;;;;;;;;;;;
2021/07/29 00:13:12;;;;;;;3.6;2.7;;;;;;;;;;;;;
2021/07/29 00:15:37;;;;;;;4.6;2.4;;;;;;;;;;;;;
2021/07/29 00:20:27;;;;;;;3.1;2.5;;;;;;;;;;;;;
2021/07/29 00:22:53;;;;;;;3.1;2.4;;;;;;;;;;;;;
2021/07/29 00:25:19;;;;;;;3.7;2.5;;;;;;;;;;;;;
2021/07/29 00:27:45;;;;;;;3.1;2.6;;;;;;;;;;;;;
2021/07/29 00:30:10;;;;;;;5.8;2.5;;;;;;;;;;;;;
2021/07/29 00:32:35;;;;;;;5.7;3.2;;;;;;;;;;;;;
2021/07/29 00:35:00;;;;;;;4.9;2.8;;;;;;;;;;;;;
2021/07/29 00:37:25;;;;;;;4.8;3.2;;;;;;;;;;;;;
2021/07/29 00:39:51;;;;;;;3.4;2.6;;;;;;;;;;;;;
2021/07/29 00:42:16;;;;;;;4.6;3;;;;;;;;;;;;;
2021/07/29 00:44:41;;;;;;;4;3.1;;;;;;;;;;;;;
2021/07/29 00:47:06;;;;;;;5.7;2.7;;;;;;;;;;;;;
2021/07/29 00:49:31;;;;;;;3.8;2.3;;;;;;;;;;;;;
2021/07/29 00:51:57;;;;;;;2.6;2.4;;;;;;;;;;;;;
2021/07/29 00:54:27;;;;;;;3.8;2.5;;;;;;;;;;;;;
2021/07/29 00:56:48;;;;;;;4;2.5;;;;;;;;;;;;;
2021/07/29 00:59:13;;;;;;;3.1;2.4;;;;;;;;;;;;;
2021/07/29 01:01:38;;;;;;;3;2.5;;;;;;;;;;;;;
2021/07/29 01:04:03;;;;;;;4;3.1;;;;;;;;;;;;;
2021/07/29 01:06:28;;;;;;;5.3;3;;;;;;;;;;;;;
2021/07/29 01:08:55;;;;;;;5.7;3;;;;;;;;;;;;;
2021/07/29 01:11:20;;;;;;;6.2;3.4;;;;;;;;;;;;;
2021/07/29 01:13:45;;;;;;;5.2;3;;;;;;;;;;;;;
2021/07/29 01:16:11;;;;;;;7;3;;;;;;;;;;;;;
2021/07/29 01:18:36;;;;;;;4.5;2.9;;;;;;;;;;;;;
2021/07/29 01:21:02;;;;;;;5.3;3;;;;;;;;;;;;;
2021/07/29 01:23:27;;;;;;;4.7;3.3;;;;;;;;;;;;;
2021/07/29 01:25:52;;;;;;;5;2.9;;;;;;;;;;;;;
2021/07/29 01:28:17;;;;;;;5.2;2.9;;;;;;;;;;;;;
2021/07/29 01:30:42;;;;;;;5.6;3.1;;;;;;;;;;;;;
2021/07/29 01:33:08;;;;;;;5.4;3.1;;;;;;;;;;;;;
2021/07/29 01:35:34;;;;;;;5.2;3;;;;;;;;;;;;;
2021/07/29 01:37:59;;;;;;;5.5;3;;;;;;;;;;;;;
2021/07/29 01:40:25;;;;;;;5.8;3.2;;;;;;;;;;;;;
2021/07/29 01:42:50;;;;;;;4.5;2.9;;;;;;;;;;;;;
2021/07/29 01:45:16;;;;;;;4.4;3;;;;;;;;;;;;;
2021/07/29 01:47:41;;;;;;;4.5;2.8;;;;;;;;;;;;;
2021/07/29 01:50:07;;;;;;;8.5;3.1;;;;;;;;;;;;;
2021/07/29 01:52:33;;;;;;;5.1;3.2;;;;;;;;;;;;;
2021/07/29 01:54:59;;;;;;;6.9;3.4;;;;;;;;;;;;;
2021/07/29 01:57:23;;;;;;;5.7;3;;;;;;;;;;;;;
2021/07/29 01:59:48;;;;;;;4.8;3;;;;;;;;;;;;;
2021/07/29 02:02:14;;;;;;;4.5;2.8;;;;;;;;;;;;;
2021/07/29 02:04:39;;;;;;;5.2;3.2;;;;;;;;;;;;;
2021/07/29 02:07:05;;;;;;;6.1;3.3;;;;;;;;;;;;;
2021/07/29 02:09:31;;;;;;;8.2;3.5;;;;;;;;;;;;;
2021/07/29 02:11:57;;;;;;;5.4;3.2;;;;;;;;;;;;;
2021/07/29 02:14:23;;;;;;;4.6;3.2;;;;;;;;;;;;;
2021/07/29 02:16:50;;;;;;;7.1;3.6;;;;;;;;;;;;;
2021/07/29 02:19:15;;;;;;;6.3;3.2;;;;;;;;;;;;;
2021/07/29 02:21:42;;;;;;;3.8;2.9;;;;;;;;;;;;;
2021/07/29 02:24:05;;;;;;;4.4;2.9;;;;;;;;;;;;;
2021/07/29 02:26:30;;;;;;;4.2;3;;;;;;;;;;;;;
2021/07/29 02:28:55;;;;;;;7;3.2;;;;;;;;;;;;;
2021/07/29 02:31:22;;;;;;;4.2;3.4;;;;;;;;;;;;;
2021/07/29 02:33:47;;;;;;;5.6;3.5;;;;;;;;;;;;;
2021/07/29 02:36:15;;;;;;;7.4;3.5;;;;;;;;;;;;;
2021/07/29 02:38:38;;;;;;;5.9;3.3;;;;;;;;;;;;;
2021/07/29 02:41:03;;;;;;;5.4;3.1;;;;;;;;;;;;;
2021/07/29 02:43:28;;;;;;;3.9;3.2;;;;;;;;;;;;;
2021/07/29 02:45:55;;;;;;;4.4;3.1;;;;;;;;;;;;;
2021/07/29 02:48:20;;;;;;;4.8;3.3;;;;;;;;;;;;;
2021/07/29 02:50:47;;;;;;;4.9;3.3;;;;;;;;;;;;;
2021/07/29 02:53:12;;;;;;;5.1;3.4;;;;;;;;;;;;;
2021/07/29 02:55:38;;;;;;;5;3.1;;;;;;;;;;;;;
2021/07/29 02:58:03;;;;;;;4.5;3.4;;;;;;;;;;;;;
2021/07/29 03:00:30;;;;;;;5.2;3.1;;;;;;;;;;;;;
2021/07/29 03:02:54;;;;;;;5.1;3.6;;;;;;;;;;;;;
2021/07/29 03:05:21;;;;;;;6.7;3.4;;;;;;;;;;;;;
2021/07/29 03:07:46;;;;;;;4.9;3.5;;;;;;;;;;;;;
2021/07/29 03:10:13;;;;;;;4.7;3.3;;;;;;;;;;;;;
2021/07/29 03:12:37;;;;;;;4.8;3.3;;;;;;;;;;;;;
2021/07/29 03:15:03;;;;;;;4.8;3.6;;;;;;;;;;;;;
2021/07/29 03:17:27;;;;;;;5.3;3.3;;;;;;;;;;;;;
2021/07/29 03:19:53;;;;;;;5.2;3.2;;;;;;;;;;;;;
2021/07/29 03:22:18;;;;;;;4.4;3.6;;;;;;;;;;;;;
2021/07/29 03:24:44;;;;;;;7;4.5;;;;;;;;;;;;;
2021/07/29 03:27:09;;;;;;;7.4;4.2;;;;;;;;;;;;;
2021/07/29 03:29:35;;;;;;;6.8;4.1;;;;;;;;;;;;;
2021/07/29 03:32:00;;;;;;;6.4;3.8;;;;;;;;;;;;;
2021/07/29 03:34:26;;;;;;;5.1;3.5;;;;;;;;;;;;;
2021/07/29 03:36:52;;;;;;;6.9;3.7;;;;;;;;;;;;;
2021/07/29 03:39:18;;;;;;;5.6;3.4;;;;;;;;;;;;;
2021/07/29 03:41:43;;;;;;;5;3.2;;;;;;;;;;;;;
2021/07/29 03:44:09;;;;;;;6.1;3;;;;;;;;;;;;;
2021/07/29 03:46:34;;;;;;;4.3;3.4;;;;;;;;;;;;;
2021/07/29 03:49:00;;;;;;;4.7;3.1;;;;;;;;;;;;;
2021/07/29 03:51:25;;;;;;;3.9;2.9;;;;;;;;;;;;;
2021/07/29 03:53:51;;;;;;;4.7;3.1;;;;;;;;;;;;;
2021/07/29 03:56:16;;;;;;;6.1;3;;;;;;;;;;;;;
2021/07/29 03:58:42;;;;;;;6;3;;;;;;;;;;;;;
2021/07/29 04:02:30;;;;;;;3.5;2.7;;;;;;;13.75;95.28418;939.0226;;;;
2021/07/29 04:04:55;;;;;;;3.7;2.8;;;;;;;13.81;94.78027;939.0002;;;;
2021/07/29 04:07:24;;;;;;;4.5;2.9;;;;;;;13.76;95.58887;939.0195;;;;
2021/07/29 04:09:49;;;;;;;3.7;2.6;;;;;;;13.77;95.43945;939.0291;;;;
2021/07/29 04:12:16;;;;;;;3.9;2.8;;;;;;;13.78;95.71777;939.0787;;;;
2021/07/29 04:14:41;;;;;;;6;3.1;;;;;;;13.78;95.72949;939.053;;;;
2021/07/29 04:17:09;;;;;;;5;3.1;;;;;;;13.84;95.71094;939.0956;;;;
2021/07/29 04:19:34;;;;;;;5.4;3.5;;;;;;;13.94;95.16699;939.1178;;;;
2021/07/29 04:22:02;;;;;;;5.7;3.3;;;;;;;13.91;94.98633;938.9355;;;;
2021/07/29 04:24:32;;;;;;;6.2;3;;;;;;;13.76;95.89941;939.0259;;;;
2021/07/29 04:26:57;;;;;;;5.3;2.8;;;;;;;13.78;95.47656;939.017;;;;
2021/07/29 04:29:26;;;;;;;4.7;2.9;;;;;;;13.84;95.34082;939.0268;;;;
2021/07/29 04:31:51;;;;;;;4.2;2.8;;;;;;;13.81;94.98926;938.9297;;;;
2021/07/29 04:34:22;;;;;;;4.2;2.9;;;;;;;13.76;95.20801;938.933;;;;
2021/07/29 04:36:53;;;;;;;3.1;2.7;;;;;;;13.75;95.09082;938.985;;;;
2021/07/29 04:39:17;;;;;;;3.6;2.5;;;;;;;13.77;95.1748;938.9529;;;;
2021/07/29 04:41:44;;;;;;;4.1;2.9;;;;;;;13.71;95.07129;938.9691;;;;
2021/07/29 04:44:09;;;;;;;3.5;2.9;;;;;;;13.68;95.96289;938.9139;;;;
2021/07/29 04:46:35;;;;;;;5.6;2.9;;;;;;;13.73;95.76563;938.905;;;;
2021/07/29 04:49:00;;;;;;;4.8;2.9;;;;;;;13.66;96.21191;938.7844;;;;
2021/07/29 04:51:29;;;;;;;3.6;2.6;;;;;;;13.77;95.76172;938.8514;;;;
2021/07/29 04:53:54;;;;;;;6;2.8;;;;;;;13.87;95.04688;938.9203;;;;
2021/07/29 04:56:20;;;;;;;6.1;3;;;;;;;13.93;94.70215;938.8137;;;;
2021/07/29 04:58:47;;;;;;;3.5;3;;;;;;;13.99;94.40723;938.9112;;;;
2021/07/29 05:01:13;;;;;;;5;2.9;;;;;;;14.09;93.94336;938.8831;;;;
2021/07/29 05:03:38;;;;;;;5.5;2.5;;;;;;;14.12;93.43555;938.8934;;;;
2021/07/29 05:06:05;;;;;;;5.7;3.2;;;;;;;14.04;93.86426;938.8777;;;;
2021/07/29 05:08:30;;;;;;;5;3.3;;;;;;;13.95;95.00977;938.8528;;;;
2021/07/29 05:10:56;;;;;;;5.7;3.2;;;;;;;13.74;96.28516;938.7874;;;;
2021/07/29 05:13:21;;;;;;;4.9;3.1;;;;;;;13.73;97.33008;938.7978;;;;
2021/07/29 05:15:52;;;;;;;3.5;2.7;;;;;;;13.84;97.35547;938.7506;;;;
2021/07/29 05:18:22;;;;;;;5.2;3.5;;;;;;;13.98;96.38477;938.7735;;;;
2021/07/29 05:20:47;;;;;;;5.8;3.2;;;;;;;13.89;97.37793;938.793;;;;
2021/07/29 05:23:16;;;;;;;6.5;3.1;;;;;;;14.06;97.30078;938.8352;;;;
2021/07/29 05:25:41;;;;;;;4.9;3;;;;;;;14.46;97.94238;938.7576;;;;
2021/07/29 05:28:09;;;;;;;6.3;2.6;;;;;;;15.8;90.44336;938.6744;;;;
2021/07/29 05:30:34;;;;;;;5.2;2.2;;;;;;;16.77;84.63184;938.696;;;;
2021/07/29 05:33:04;;;;;;;6.8;2.2;;;;;;;17.57;80.78223;938.6431;;;;
2021/07/29 05:35:28;;;;;;;3.7;2.1;;;;;;;19.07;75.18945;938.6666;;;;
2021/07/29 05:37:56;;;;;;;3.9;2.1;;;;;;;20.03;70.44238;938.6439;;;;
2021/07/29 05:40:30;;;;;;;3.9;2.1;;;;;;;21.21;66.39355;938.6175;;;;
2021/07/29 05:43:01;;;;;;;3.7;2.4;;;;;;;22.38;61.58398;938.6167;;;;
2021/07/29 05:45:32;;;;;;;3.7;1.9;;;;;;;23.52;58.75488;938.6;;;;
2021/07/29 05:48:01;;;;;;;5.6;2.8;;;;;;;22.87;58.06934;938.5781;;;;
2021/07/29 05:50:26;;;;;;;4.2;2.6;;;;;;;22.76;59.62891;938.5895;;;;
2021/07/29 05:52:52;;;;;;;2.9;2;;;;;;;23.12;58.6543;938.5469;;;;
2021/07/29 05:55:36;;;;;;;3.5;2.3;;;;;;;23.24;58.14355;938.5262;;;;
2021/07/29 05:57:58;;;;;;;7.3;2.7;;;;;;;24.73;54.74023;938.5012;;;;
2021/07/29 06:00:25;;;;;;;5.9;2.1;;;;;;;25.01;53.95996;938.4835;;;;
2021/07/29 06:02:50;;;;;;;2.3;1.7;;;;;;;25.4;52.56641;938.4634;;;;
2021/07/29 06:05:17;;;;;;;3.7;1.7;;;;;;;26.86;49.75195;938.4997;;;;
2021/07/29 06:07:42;;;;;;;1.9;1.5;;;;;;;27.86;46.89355;938.5396;;;;
2021/07/29 06:10:16;;;;;;;2.1;1.3;;;;;;;27.8;47.25684;938.5284;;;;
2021/07/29 06:12:46;;;;;;;1.6;1.3;;;;;;;27.85;45.39746;938.5189;;;;
2021/07/29 06:15:23;;;;;;;3.9;1.5;;;;;;;26.8;47.6377;938.507;;;;
2021/07/29 06:17:55;;;;;;;3.3;1.3;;;;;;;28.01;44.41504;938.5052;;;;
2021/07/29 06:20:23;;;;;;;1.8;1.3;;;;;;;28.35;43.91309;938.4841;;;;
2021/07/29 06:22:54;;;;;;;1.9;1.4;;;;;;;27.77;45.57813;938.5396;;;;
2021/07/29 06:25:25;;;;;;;2.2;1.4;;;;;;;29.26;43.16895;938.4841;;;;
2021/07/29 06:27:54;;;;;;;1.5;1.4;;;;;;;28.85;41.66504;938.4622;;;;
2021/07/29 06:30:19;;;;;;;1.6;1.3;;;;;;;29.66;40.96582;938.4422;;;;
2021/07/29 06:32:48;;;;;;;1.3;1.2;;;;;;;30.8;39.38379;938.4299;;;;
2021/07/29 06:35:19;;;;;;;2;1.3;;;;;;;29.64;41.45313;938.4147;;;;
2021/07/29 06:37:49;;;;;;;1.6;1.1;;;;;;;29.63;39.56934;938.4028;;;;
2021/07/29 06:40:14;;;;;;;1;1;;;;;;;30.61;40.25098;938.4416;;;;
2021/07/29 06:42:43;;;;;;;1.7;1.2;;;;;;;31.3;39.43848;938.5103;;;;
2021/07/29 06:45:08;;;;;;;1.4;1.3;;;;;;;31.14;39.90332;938.4892;;;;
2021/07/29 06:47:34;;;;;;;1.9;1.2;;;;;;;30.59;39.23438;938.4646;;;;
2021/07/29 06:50:00;;;;;;;2.2;1;;;;;;;31.48;39;938.4494;;;;
2021/07/29 06:52:28;;;;;;;1.5;1.1;;;;;;;31.81;38.64453;938.4372;;;;
2021/07/29 06:54:53;;;;;;;1.7;1;;;;;;;32.66;35.98145;938.4266;;;;
2021/07/29 06:57:22;;;;;;;1.2;1.1;;;;;;;32.79;34.7666;938.4333;;;;
2021/07/29 06:59:47;;;;;;;1;1;;;;;;;33.29;35.11719;938.4456;;;;
2021/07/29 07:02:14;;;;;;;1.4;1;;;;;;;33.29;35.73047;938.418;;;;
2021/07/29 07:04:39;;;;;;;1;1;;;;;;;33.22;34.94434;938.3756;;;;
2021/07/29 07:07:04;;;;;;;2;1.5;;;;;;;33.13;36.54688;938.4094;;;;
2021/07/29 07:09:29;;;;;;;1.1;1;;;;;;;33.24;37.27734;938.3909;;;;
2021/07/29 07:11:59;;;;;;;2;1.1;;;;;;;31.85;36.875;938.3993;;;;
2021/07/29 07:14:29;;;;;;;1.3;1.2;;;;;;;31.03;40.15723;938.353;;;;
2021/07/29 07:17:02;;;;;;;2.1;1.1;;;;;;;31.63;37.63574;938.3365;;;;
2021/07/29 07:19:27;;;;;;;1.3;1.1;;;;;;;31.77;39.07422;938.3383;;;;
2021/07/29 07:21:52;;;;;;;2.5;1.3;;;;;;;33.63;33.52051;938.3176;;;;
2021/07/29 07:24:23;;;;;;;2.2;1.4;;;;;;;33.85;34.98047;938.3278;;;;
2021/07/29 07:26:47;;;;;;;4;1.3;;;;;;;32.5;37.4082;938.3503;;;;
2021/07/29 07:29:15;;;;;;;2.2;1.2;;;;;;;33.56;35.4873;938.3091;;;;
2021/07/29 07:31:45;;;;;;;1.9;1.1;;;;;;;32.42;36.86133;938.2494;;;;
2021/07/29 07:34:16;;;;;;;1.4;1.3;;;;;;;32.65;38.11621;938.2734;;;;
2021/07/29 07:36:46;;;;;;;1.2;1.1;;;;;;;32.53;36.78711;938.2742;;;;
2021/07/29 07:39:17;;;;;;;2.3;1.4;;;;;;;34.8;32.80957;938.2899;;;;
2021/07/29 07:41:49;;;;;;;1.4;1.1;;;;;;;34.2;33.97168;938.2731;;;;
2021/07/29 07:44:17;;;;;;;1.4;1.2;;;;;;;34.45;33.21875;938.2555;;;;
2021/07/29 07:46:42;;;;;;;2.5;1.3;;;;;;;32.61;36.48145;938.236;;;;
2021/07/29 07:49:10;;;;;;;2.3;1.1;;;;;;;35.06;32.44238;938.274;;;;
2021/07/29 07:51:37;;;;;;;1.3;1.2;;;;;;;35.26;29.45215;938.2178;;;;
2021/07/29 07:54:02;;;;;;;1.9;1.5;;;;;;;34.09;32.44629;938.2131;;;;
2021/07/29 07:56:27;;;;;;;2;1.2;;;;;;;34.02;33.83789;938.1649;;;;
2021/07/29 07:58:55;;;;;;;1.3;1.2;;;;;;;34.85;32.34277;938.1183;;;;
2021/07/29 08:01:20;;;;;;;1.6;1.4;;;;;;;34.28;33.62793;938.1085;;;;
2021/07/29 08:03:48;;;;;;;2.9;1.6;;;;;;;34.89;31.5752;938.0355;;;;
2021/07/29 08:06:17;;;;;;;1.7;1.5;;;;;;;35.26;31.31055;938.077;;;;
2021/07/29 08:08:45;;;;;;;2;1.8;;;;;;;33.55;35.7627;938.0005;;;;
2021/07/29 08:11:10;;;;;;;3.2;1.8;;;;;;;34.9;32.05762;937.9861;;;;
2021/07/29 08:13:39;;;;;;;2.2;1.8;;;;;;;30.45;39.05469;937.9634;;;;
2021/07/29 08:16:16;;;;;;;2.7;2.2;;;;;;;29.44;41.20801;937.9469;;;;
2021/07/29 08:18:40;;;;;;;2.6;2.3;;;;;;;29.13;43.22754;937.9966;;;;
2021/07/29 08:21:05;;;;;;;3.1;2.2;;;;;;;29.87;43.33398;937.9615;;;;
2021/07/29 08:23:40;;;;;;;3.3;2.1;;;;;;;32.65;37.32422;937.9412;;;;
2021/07/29 08:26:07;;;;;;;2.4;2;;;;;;;32.07;38.46387;937.9067;;;;
2021/07/29 08:28:31;;;;;;;2.9;1.9;;;;;;;32.62;37.11816;937.8569;;;;
2021/07/29 08:30:56;;;;;;;2.2;2;;;;;;;30.12;42.09375;937.8469;;;;
2021/07/29 08:33:23;;;;;;;2.7;2;;;;;;;31.64;39.49316;937.8085;;;;
2021/07/29 08:35:50;;;;;;;2.2;1.8;;;;;;;30.87;40.32227;937.7555;;;;
2021/07/29 08:38:23;;;;;;;4;2.2;;;;;;;31.77;38.62988;937.8148;;;;
2021/07/29 08:40:56;;;;;;;3.3;2.4;;;;;;;31.25;39.72168;937.7311;;;;
2021/07/29 08:43:22;;;;;;;2.6;2.3;;;;;;;30.59;41.83887;937.7255;;;;
2021/07/29 08:45:58;;;;;;;3;2.5;;;;;;;33.7;34.94434;937.7392;;;;
2021/07/29 08:48:26;;;;;;;2.8;2.3;;;;;;;34.38;33.79199;937.7297;;;;
2021/07/29 08:50:58;;;;;;;3.7;2.6;;;;;;;35.82;32.43652;937.7304;;;;
2021/07/29 08:53:52;;;;;;;2.9;2.6;;;;;;;32.53;36.75098;937.718;;;;
2021/07/29 08:55:48;;;;;;;3.3;2.7;;;;;;;32.89;38.47266;937.778;;;;
2021/07/29 08:58:14;;;;;;;2.8;2.5;;;;;;;34.59;32.58984;937.7061;;;;
2021/07/29 09:00:41;;;;;;;2.8;2.6;;;;;;;35.89;31.64355;937.6852;;;;
2021/07/29 09:03:16;;;;;;;3;2.8;;;;;;;34.74;34.19238;937.7059;;;;
2021/07/29 09:05:50;;;;;;;2.6;2.4;;;;;;;33.26;35.62012;937.6506;;;;
2021/07/29 09:08:23;;;;;;;3.2;2.6;;;;;;;33.6;35.79102;937.6252;;;;
2021/07/29 09:10:46;;;;;;;2.9;2.6;;;;;;;33.64;33.13574;937.5622;;;;
2021/07/29 09:13:23;;;;;;;2.7;2.5;;;;;;;34.29;33.25586;937.568;;;;
2021/07/29 09:15:45;;;;;;;4.6;3.1;;;;;;;31.6;38.97461;937.6294;;;;
2021/07/29 09:18:08;;;;;;;3.1;2.8;;;;;;;29.46;42.73535;937.5412;;;;
2021/07/29 09:20:33;;;;;;;5.7;2.6;;;;;;;28.91;45.86133;937.5552;;;;
2021/07/29 09:22:59;;;;;;;2.6;2.3;;;;;;;30.11;42.39063;937.5759;;;;
2021/07/29 09:25:39;;;;;;;3.2;2.5;;;;;;;31.09;40.7959;937.5438;;;;
2021/07/29 09:28:21;;;;;;;2.7;2.5;;;;;;;32.49;37.2998;937.5745;;;;
2021/07/29 09:30:49;;;;;;;2.5;2.3;;;;;;;30.64;42.29688;937.5719;;;;
2021/07/29 09:33:20;;;;;;;2.6;2.4;;;;;;;32.41;37.47266;937.5429;;;;
2021/07/29 09:35:51;;;;;;;3.2;2.9;;;;;;;33.33;36.94727;937.5178;;;;
2021/07/29 09:38:16;;;;;;;2.9;2.6;;;;;;;33.81;36.97461;937.5439;;;;
2021/07/29 09:40:39;;;;;;;2.9;2.4;;;;;;;31.35;41.50195;937.5584;;;;
2021/07/29 09:43:04;;;;;;;4;2.6;;;;;;;31.93;39.63867;937.5072;;;;
2021/07/29 09:45:36;;;;;;;3.2;2.9;;;;;;;30.31;43.30469;937.5302;;;;
2021/07/29 09:47:57;;;;;;;3.5;2.7;;;;;;;30.46;43.05664;937.5455;;;;
2021/07/29 09:50:23;;;;;;;2.7;2.5;;;;;;;30.72;42.40039;937.4919;;;;
2021/07/29 09:52:51;;;;;;;2.9;2.6;;;;;;;30.99;40.69141;937.4822;;;;
2021/07/29 09:55:19;;;;;;;3.1;2.8;;;;;;;29.65;44.26758;937.4241;;;;
2021/07/29 09:57:50;;;;;;;4.3;2.6;;;;;;;30.36;42.30664;937.4309;;;;
2021/07/29 10:00:21;;;;;;;2.7;2.5;;;;;;;29.14;48.09961;937.3723;;;;
2021/07/29 10:02:46;;;;;;;2.9;2.5;;;;;;;30.14;43.89844;937.3133;;;;
2021/07/29 10:05:16;;;;;;;3.1;2.7;;;;;;;30.33;43.1875;937.2914;;;;
2021/07/29 10:07:41;;;;;;;3.5;2.6;;;;;;;31;40.94434;937.2442;;;;
2021/07/29 10:10:15;;;;;;;3.2;2.4;;;;;;;30.95;41.28516;937.2559;;;;
2021/07/29 10:12:58;;;;;;;2.6;2.4;;;;;;;30.35;43.99023;937.2209;;;;
2021/07/29 10:15:09;;;;;;;3.4;2.4;;;;;;;30.32;41.86133;937.1939;;;;
2021/07/29 10:17:35;;;;;;;2.6;2.4;;;;;;;30.24;43.90723;937.233;;;;
2021/07/29 10:20:06;;;;;;;3.3;2.7;;;;;;;30.95;40.31738;937.1315;;;;
2021/07/29 10:22:31;;;;;;;2.7;2.5;;;;;;;30.08;43.22363;937.1916;;;;
2021/07/29 10:25:06;;;;;;;2.7;2.5;;;;;;;30.27;43.83887;937.1855;;;;
2021/07/29 10:27:44;;;;;;;4;2.6;;;;;;;29.38;43.72852;937.092;;;;
2021/07/29 10:30:15;;;;;;;3.1;2.8;;;;;;;28.93;46.04102;937.0364;;;;
2021/07/29 10:32:43;;;;;;;3.8;3;;;;;;;29.26;45.87207;937.0587;;;;
2021/07/29 10:35:11;;;;;;;2.8;2.6;;;;;;;28.74;48.42676;937.0511;;;;
2021/07/29 10:37:37;;;;;;;6.2;2.6;;;;;;;29.53;44.13672;937.0376;;;;
2021/07/29 10:40:01;;;;;;;3.2;2.9;;;;;;;30.49;41.04102;937.072;;;;
2021/07/29 10:42:27;;;;;;;2.6;2.4;;;;;;;30.33;44.01172;937.082;;;;
2021/07/29 10:44:58;;;;;;;3;2.7;;;;;;;29.95;41.7793;937.0588;;;;
2021/07/29 10:47:24;;;;;;;3.1;2.8;;;;;;;29.72;44.53711;937.0154;;;;
2021/07/29 10:49:52;;;;;;;4.9;2.6;;;;;;;29.79;46.27344;937.0878;;;;
2021/07/29 10:52:17;;;;;;;3.2;2.9;;;;;;;28.64;47.9873;936.9984;;;;
2021/07/29 10:54:44;;;;;;;2.9;2.7;;;;;;;27.91;48.21777;937.0305;;;;
2021/07/29 10:57:22;;;;;;;3.1;2.8;;;;;;;27.36;51.78809;936.9905;;;;
2021/07/29 10:59:51;;;;;;;3.3;3;;;;;;;26.64;51.7168;936.9899;;;;
2021/07/29 11:02:24;;;;;;;3.1;2.8;;;;;;;26.9;51.92578;936.9958;;;;
2021/07/29 11:04:49;;;;;;;3.1;2.8;;;;;;;27.74;48.90039;936.8864;;;;
2021/07/29 11:07:14;;;;;;;3.2;2.9;;;;;;;27.43;52.21191;936.9445;;;;
2021/07/29 11:09:39;;;;;;;3.5;3;;;;;;;26.76;53.56738;936.9105;;;;
2021/07/29 11:12:06;;;;;;;3.9;3.3;;;;;;;27.63;51.05957;936.8533;;;;
2021/07/29 11:14:32;;;;;;;4;3.5;;;;;;;27.81;50.61719;936.8117;;;;
2021/07/29 11:17:01;;;;;;;3.2;2.9;;;;;;;28.43;48.26172;936.8136;;;;
2021/07/29 11:19:39;;;;;;;3.7;3;;;;;;;28.59;48.37402;936.7963;;;;
2021/07/29 11:22:05;;;;;;;3.2;2.9;;;;;;;28.78;47.78809;936.7836;;;;
2021/07/29 11:24:33;;;;;;;3.4;3.1;;;;;;;29.13;46.58594;936.7579;;;;
2021/07/29 11:26:58;;;;;;;3.3;3;;;;;;;28.58;47.7666;936.77;;;;
2021/07/29 11:29:28;;;;;;;3.4;3.1;;;;;;;27.77;49.88867;936.7248;;;;
2021/07/29 11:31:58;;;;;;;3.9;3.2;;;;;;;27.71;49.84766;936.6702;;;;
2021/07/29 11:34:24;;;;;;;3.8;3.4;;;;;;;27.25;52.77246;936.6661;;;;
2021/07/29 11:36:49;;;;;;;3.8;3.3;;;;;;;27.75;49.11523;936.6526;;;;
2021/07/29 11:39:15;;;;;;;4;3.6;;;;;;;27.4;51.8291;936.5992;;;;
2021/07/29 11:41:40;;;;;;;4.2;3.5;;;;;;;27.46;52.21484;936.6244;;;;
2021/07/29 11:44:05;;;;;;;4;3.3;;;;;;;27.56;52.09668;936.5592;;;;
2021/07/29 11:46:30;;;;;;;4.2;3.3;;;;;;;27.32;49.73242;936.588;;;;
2021/07/29 11:49:02;;;;;;;4.3;3.6;;;;;;;26.69;53.03809;936.5619;;;;
2021/07/29 11:51:22;;;;;;;4;3.2;;;;;;;25.77;53.63867;936.4816;;;;
2021/07/29 11:53:51;;;;;;;4.6;3.5;;;;;;;26.18;54.29102;936.507;;;;
2021/07/29 11:56:17;;;;;;;3.5;3.2;;;;;;;25.73;56.41113;936.5385;;;;
2021/07/29 11:58:42;;;;;;;4.3;3.9;;;;;;;26.3;54.11621;936.5363;;;;
2021/07/29 12:01:11;;;;;;;4;3.6;;;;;;;26.39;53.74805;936.5583;;;;
2021/07/29 12:03:36;;;;;;;4.9;3.6;;;;;;;26.16;57.24512;936.5115;;;;
2021/07/29 12:06:01;;;;;;;4.8;3.8;;;;;;;26.29;53.81934;936.5302;;;;
2021/07/29 12:08:26;;;;;;;4.1;3.7;;;;;;;26.16;54.85645;936.5058;;;;
2021/07/29 12:10:51;;;;;;;4.5;3.6;;;;;;;26.48;53.85352;936.4425;;;;
2021/07/29 12:13:23;;;;;;;4.4;4;;;;;;;25.83;56.11621;936.3778;;;;
2021/07/29 12:15:49;;;;;;;4.3;3.8;;;;;;;26.07;57.11621;936.3736;;;;
2021/07/29 12:18:15;;;;;;;4.2;3.8;;;;;;;25.75;58.44629;936.3909;;;;
2021/07/29 12:20:43;;;;;;;4.5;3.7;;;;;;;25.77;57.75098;936.4166;;;;
2021/07/29 12:23:10;;;;;;;4.3;3.7;;;;;;;25.46;59.40039;936.3699;;;;
2021/07/29 12:25:35;;;;;;;4.4;4;;;;;;;26.14;54.79492;936.359;;;;
2021/07/29 12:28:02;;;;;;;5.9;3.9;;;;;;;26.39;55.73633;936.3437;;;;
2021/07/29 12:30:27;;;;;;;4.5;4.1;;;;;;;25.99;57.30762;936.3049;;;;
2021/07/29 12:32:52;;;;;;;4.1;3.7;;;;;;;25.97;56.23926;936.3183;;;;
2021/07/29 12:35:17;;;;;;;4.1;3.7;;;;;;;25.91;56.63477;936.3555;;;;
2021/07/29 12:37:46;;;;;;;4.1;3.7;;;;;;;26.15;54.47559;936.3309;;;;
2021/07/29 12:40:14;;;;;;;5.6;3.9;;;;;;;26.08;55.42676;936.2977;;;;
2021/07/29 12:42:43;;;;;;;4.7;3.8;;;;;;;25.91;56.77637;936.2553;;;;
2021/07/29 12:45:10;;;;;;;5.2;4.1;;;;;;;26.27;54.89355;936.1881;;;;
2021/07/29 12:47:36;;;;;;;4.3;3.9;;;;;;;26.31;55.06445;936.1598;;;;
2021/07/29 12:50:14;;;;;;;5.2;3.8;;;;;;;26.71;52.19922;936.106;;;;
2021/07/29 12:52:35;;;;;;;4.4;3.9;;;;;;;26.95;51.6582;936.1507;;;;
2021/07/29 12:55:07;;;;;;;3.9;3.6;;;;;;;26.59;54.55371;936.0667;;;;
2021/07/29 12:57:29;;;;;;;5.1;3.7;;;;;;;26.16;53.91016;936.0314;;;;
2021/07/29 12:59:56;;;;;;;5.1;4.2;;;;;;;26.12;54.88672;936.0133;;;;
2021/07/29 13:02:21;;;;;;;4.9;4.3;;;;;;;26.32;56.35645;936.0187;;;;
2021/07/29 13:04:48;;;;;;;4.4;3.8;;;;;;;26.85;51.34961;936.0307;;;;
2021/07/29 13:07:15;;;;;;;6;4.3;;;;;;;27.05;53.37695;935.963;;;;
2021/07/29 13:09:40;;;;;;;4.7;4.1;;;;;;;26.54;55.19922;935.933;;;;
2021/07/29 13:12:05;;;;;;;11.6;7.5;;;;;;;26.31;57.02734;935.8736;;;;
2021/07/29 13:14:31;;;;;;;54.8;31.9;;;;;;;26.54;55.8252;935.9127;;;;
2021/07/29 13:16:58;;;;;;;7.7;5.5;;;;;;;26.2;58.56445;935.8561;;;;
2021/07/29 13:19:30;;;;;;;55.2;27.9;;;;;;;26.44;57.57813;935.8748;;;;
2021/07/29 13:21:55;;;;;;;46.9;24.6;;;;;;;26.46;56.08887;935.872;;;;
2021/07/29 13:24:23;;;;;;;24.2;15.4;;;;;;;26.84;52.9834;935.8293;;;;
2021/07/29 13:26:48;;;;;;;18.8;11.6;;;;;;;27.12;53.3252;935.8169;;;;
2021/07/29 13:29:13;;;;;;;5;4.2;;;;;;;26.78;55.16895;935.8479;;;;
2021/07/29 13:31:40;;;;;;;6.3;4.7;;;;;;;26.5;54.55469;935.803;;;;
2021/07/29 13:34:06;;;;;;;4.7;4.3;;;;;;;26.76;54.05273;935.7769;;;;
2021/07/29 13:36:34;;;;;;;6.9;5.3;;;;;;;26.98;52.71582;935.7224;;;;
2021/07/29 13:39:01;;;;;;;8.2;5;;;;;;;27.13;52.97168;935.7123;;;;
2021/07/29 13:41:33;;;;;;;6;4.5;;;;;;;27.14;54.0752;935.7255;;;;
2021/07/29 13:44:00;;;;;;;14.5;6.4;;;;;;;27.26;52.3584;935.7261;;;;
2021/07/29 13:46:23;;;;;;;5.6;4.3;;;;;;;26.8;55.37402;935.7419;;;;
2021/07/29 13:48:48;;;;;;;7.5;5.2;;;;;;;26.31;55.58496;935.7225;;;;
2021/07/29 13:51:13;;;;;;;5.1;4.4;;;;;;;26.68;53.87793;935.7296;;;;
2021/07/29 13:53:40;;;;;;;5.7;4.4;;;;;;;26.83;53.30371;935.7043;;;;
2021/07/29 13:56:08;;;;;;;4.6;4.2;;;;;;;26.57;55.06055;935.6954;;;;
2021/07/29 13:58:32;;;;;;;7.4;5.2;;;;;;;26.77;53.11816;935.658;;;;
2021/07/29 14:00:58;;;;;;;8.3;4.8;;;;;;;27.02;52.89941;935.666;;;;
2021/07/29 14:03:23;;;;;;;4.8;4.3;;;;;;;26.88;54.13965;935.6364;;;;
2021/07/29 14:05:52;;;;;;;6.6;4.5;;;;;;;26.83;54.10938;935.5737;;;;
2021/07/29 14:08:17;;;;;;;4.9;4.2;;;;;;;26.27;56.07617;935.6685;;;;
2021/07/29 14:10:47;;;;;;;4.9;4.4;;;;;;;26.49;57.1582;935.6278;;;;
2021/07/29 14:13:15;;;;;;;4.2;3.8;;;;;;;26.73;53.95508;935.5828;;;;
2021/07/29 14:15:40;;;;;;;4.9;4.4;;;;;;;26.59;54.0918;935.592;;;;
2021/07/29 14:18:10;;;;;;;4.5;4.1;;;;;;;26.41;54.79199;935.6223;;;;
2021/07/29 14:20:42;;;;;;;4.4;4;;;;;;;26.6;52.45996;935.5833;;;;
2021/07/29 14:23:07;;;;;;;5;4;;;;;;;26.14;56.07324;935.5291;;;;
2021/07/29 14:25:29;;;;;;;4.7;4.3;;;;;;;26.32;54.20215;935.5223;;;;
2021/07/29 14:27:57;;;;;;;5.8;4.3;;;;;;;26.43;55.57617;935.4866;;;;
2021/07/29 14:30:22;;;;;;;5.2;4.5;;;;;;;25.99;56.43262;935.5192;;;;
2021/07/29 14:32:50;;;;;;;5.6;4.4;;;;;;;26.03;55.44336;935.4861;;;;
2021/07/29 14:35:15;;;;;;;5.3;4.6;;;;;;;26.08;55.68555;935.5137;;;;
2021/07/29 14:37:43;;;;;;;5;4.5;;;;;;;26.06;55.70703;935.4774;;;;
2021/07/29 14:40:09;;;;;;;4.9;4.4;;;;;;;25.95;56.86426;935.5452;;;;
2021/07/29 14:42:36;;;;;;;6.3;4.8;;;;;;;25.74;58.01953;935.4973;;;;
2021/07/29 14:45:13;;;;;;;5;4.5;;;;;;;25.52;59.31445;935.5278;;;;
2021/07/29 14:49:52;;;;;;;5.1;4.6;;;;;;;25.54;56.72949;935.5227;;;;
2021/07/29 14:52:18;;;;;;;4.9;4.5;;;;;;;25.72;56.11426;935.5553;;;;
2021/07/29 14:54:44;;;;;;;4.7;4.3;;;;;;;25.47;58.94141;935.5776;;;;
2021/07/29 14:57:12;;;;;;;5;4.5;;;;;;;25.62;59.25586;935.5683;;;;
2021/07/29 16:08:02;;;;;;;5.5;5;;;;;;;25.46;56.10547;935.3395;;;;
2021/07/29 16:10:23;;;;;;;5.8;5;;;;;;;25.31;56.81836;935.3723;;;;
2021/07/29 16:12:51;;;;;;;6;5.4;;;;;;;25.25;57.35449;935.3599;;;;
2021/07/29 16:15:16;;;;;;;6;5.1;;;;;;;25.24;57.24707;935.2927;;;;
2021/07/29 16:17:42;;;;;;;5.6;5;;;;;;;25.28;57.65332;935.3879;;;;
2021/07/29 16:20:07;;;;;;;5.5;4.9;;;;;;;25.33;57.62402;935.2993;;;;
2021/07/29 16:22:35;;;;;;;5.6;5.1;;;;;;;25.3;58.00977;935.3664;;;;
2021/07/29 16:25:01;;;;;;;6.2;5.4;;;;;;;25.25;57.80273;935.2954;;;;
2021/07/29 16:27:25;;;;;;;5.9;5.1;;;;;;;25.25;57.61426;935.3412;;;;
2021/07/29 16:29:54;;;;;;;7;5;;;;;;;25.3;57.83203;935.3337;;;;
2021/07/29 16:32:19;;;;;;;5.2;4.7;;;;;;;25.31;58.16406;935.2534;;;;
2021/07/29 16:34:49;;;;;;;6.1;5.1;;;;;;;25.17;57.72266;935.3033;;;;
2021/07/29 16:37:14;;;;;;;5.4;4.9;;;;;;;25.12;58.44629;935.2761;;;;
2021/07/29 16:49:42;;;;;;;6.2;5.1;;;;;;;24.78;58.48438;935.2721;;;;
2021/07/29 16:52:12;;;;;;;5.1;4.7;;;;;;;24.75;58.52734;935.2816;;;;
2021/07/29 16:54:41;;;;;;;6.2;5.4;;;;;;;24.69;58.49707;935.2839;;;;
2021/07/29 16:57:06;;;;;;;5.3;4.8;;;;;;;24.65;58.65625;935.2817;;;;
2021/07/29 16:59:33;;;;;;;6;5.4;;;;;;;24.44;59.38281;935.2073;;;;
2021/07/29 17:01:58;;;;;;;5.9;5.3;;;;;;;24.43;59.00488;935.2964;;;;